Time;durP1;ratioP1;P1;durP2;ratioP2;P2;SDS_P1;SDS_P2;PMS_P1;PMS_P2;Temp;Humidity;BMP_temperature;BMP_pressure;BME280_temperature;BME280_humidity;BME280_pressure;Samples;Min_cycle;Max_cycle;Signal;HPM_P1;HPM_P2
2021/11/05 00:02:05;;;;;;;8.15;5.88;;;;;;;23.95;44.37;95115.81;5025189;28;20498;-61
2021/11/05 00:04:30;;;;;;;7.25;5.80;;;;;;;23.96;44.03;95111.84;5006309;28;20555;-61
2021/11/05 00:06:55;;;;;;;6.72;5.25;;;;;;;23.93;43.99;95112.88;5006990;28;20582;-61
2021/11/05 00:09:21;;;;;;;6.82;4.95;;;;;;;23.91;44.06;95115.34;5024691;28;20095;-61
2021/11/05 00:11:46;;;;;;;7.88;5.15;;;;;;;23.90;44.56;95100.25;5024591;28;20408;-61
2021/11/05 00:14:12;;;;;;;7.15;5.13;;;;;;;23.86;44.71;95107.97;5024170;28;20408;-61
2021/11/05 00:16:37;;;;;;;8.48;5.28;;;;;;;23.87;44.74;95104.00;5024308;28;20476;-60
2021/11/05 00:19:03;;;;;;;7.65;5.18;;;;;;;23.86;44.26;95109.22;5024427;28;20029;-60
2021/11/05 00:21:28;;;;;;;8.07;5.32;;;;;;;23.85;44.21;95105.00;5024245;28;20424;-61
2021/11/05 00:23:54;;;;;;;8.10;4.80;;;;;;;23.84;44.50;95115.19;5023858;28;20108;-61
2021/11/05 00:26:19;;;;;;;6.90;4.85;;;;;;;23.81;44.44;95105.31;5024507;28;20021;-60
2021/11/05 00:28:45;;;;;;;8.55;5.15;;;;;;;23.81;44.62;95097.13;5024313;28;20029;-60
2021/11/05 00:31:10;;;;;;;7.35;5.10;;;;;;;23.81;44.27;95118.19;5024461;28;20017;-60
2021/11/05 00:33:36;;;;;;;7.85;5.20;;;;;;;23.80;44.34;95108.53;5024063;28;20029;-61
2021/11/05 00:36:01;;;;;;;7.75;5.00;;;;;;;23.78;44.10;95100.09;5024134;28;20022;-61
2021/11/05 00:38:27;;;;;;;7.35;4.82;;;;;;;23.74;44.66;95084.03;5027850;28;20041;-61
2021/11/05 00:40:52;;;;;;;7.07;4.90;;;;;;;23.75;44.67;95095.66;5028152;28;20037;-60
2021/11/05 00:43:17;;;;;;;7.20;5.47;;;;;;;23.73;44.61;95093.47;5026461;28;20476;-61
2021/11/05 00:45:43;;;;;;;7.80;5.15;;;;;;;23.71;45.00;95092.50;5028125;28;20375;-61
2021/11/05 00:48:09;;;;;;;8.30;5.00;;;;;;;23.71;44.64;95078.88;5027963;28;20688;-60
2021/11/05 00:50:34;;;;;;;8.05;5.80;;;;;;;23.68;44.67;95080.63;5038940;28;20020;-61
2021/11/05 00:53:00;;;;;;;7.43;5.20;;;;;;;23.67;45.07;95083.84;5028710;28;20021;-61
2021/11/05 00:55:25;;;;;;;7.43;5.20;;;;;;;23.66;45.09;95099.47;5028130;28;20079;-61
2021/11/05 00:57:51;;;;;;;7.53;5.38;;;;;;;23.63;45.21;95072.44;5027896;28;20495;-61
2021/11/05 01:02:55;;;;;;;7.88;5.30;;;;;;;23.62;45.13;95087.34;5238014;23;20068;-63
2021/11/05 01:05:20;;;;;;;7.60;5.28;;;;;;;23.60;45.04;95078.91;5028338;28;20068;-63
2021/11/05 01:07:46;;;;;;;6.93;5.00;;;;;;;23.62;44.98;95081.91;5029786;28;20036;-63
2021/11/05 01:10:11;;;;;;;6.93;5.00;;;;;;;23.60;44.82;95084.38;5047654;28;20029;-63
2021/11/05 01:12:37;;;;;;;7.35;5.20;;;;;;;23.59;44.99;95077.47;5047338;28;20021;-63
2021/11/05 01:15:04;;;;;;;8.10;5.55;;;;;;;23.61;44.80;95088.59;5047013;28;20024;-63
2021/11/05 01:17:30;;;;;;;7.30;4.85;;;;;;;23.59;44.99;95082.91;5047204;28;20450;-63
2021/11/05 01:19:56;;;;;;;8.32;5.25;;;;;;;23.56;45.27;95073.75;5047409;28;20064;-63
2021/11/05 01:22:21;;;;;;;7.22;5.20;;;;;;;23.56;44.69;95062.13;5047181;28;20055;-63
2021/11/05 01:24:47;;;;;;;7.38;5.13;;;;;;;23.57;44.99;95069.03;5012516;28;20548;-63
2021/11/05 01:27:12;;;;;;;6.85;5.22;;;;;;;23.50;44.72;95064.16;5047159;28;20029;-63
2021/11/05 01:29:38;;;;;;;6.72;5.03;;;;;;;23.53;44.98;95068.59;5046953;28;20047;-63
2021/11/05 01:32:04;;;;;;;6.32;4.80;;;;;;;23.53;44.89;95074.03;5047170;28;20048;-62
2021/11/05 01:34:30;;;;;;;7.43;5.20;;;;;;;23.50;44.84;95058.72;5046540;28;20032;-63
2021/11/05 01:36:55;;;;;;;6.78;5.15;;;;;;;23.49;44.91;95057.94;5047191;28;20028;-63
2021/11/05 01:39:21;;;;;;;6.32;4.72;;;;;;;23.48;44.97;95056.50;5028883;28;20435;-63
2021/11/05 01:41:46;;;;;;;6.85;5.15;;;;;;;23.49;45.29;95062.66;5029332;28;20033;-62
2021/11/05 01:44:11;;;;;;;7.25;5.25;;;;;;;23.47;45.24;95071.34;5046702;28;20051;-62
2021/11/05 01:46:41;;;;;;;8.05;5.03;;;;;;;23.46;44.89;95052.78;5046655;28;20036;-63
2021/11/05 01:49:10;;;;;;;7.20;5.15;;;;;;;23.45;44.90;95051.28;5046109;28;20018;-63
2021/11/05 01:51:36;;;;;;;7.70;5.10;;;;;;;23.46;45.05;95063.69;5028809;28;20028;-63
2021/11/05 01:54:04;;;;;;;7.78;5.05;;;;;;;23.48;44.99;95077.53;5046451;28;20582;-63
2021/11/05 01:56:30;;;;;;;7.95;5.65;;;;;;;23.45;45.07;95062.19;5046571;28;20032;-62
2021/11/05 01:58:55;;;;;;;6.68;5.10;;;;;;;23.44;45.49;95056.00;5046560;28;20036;-63
2021/11/05 02:01:21;;;;;;;7.47;5.55;;;;;;;23.40;45.33;95057.53;5046168;28;20028;-62
2021/11/05 02:03:46;;;;;;;5.60;4.85;;;;;;;23.42;45.40;95068.66;5028630;28;20057;-63
2021/11/05 02:06:12;;;;;;;7.03;4.95;;;;;;;23.42;45.37;95065.94;5046254;28;20423;-63
2021/11/05 02:08:39;;;;;;;6.50;4.85;;;;;;;23.34;45.36;95051.41;5028344;28;20029;-63
2021/11/05 02:11:05;;;;;;;6.60;4.75;;;;;;;23.40;45.05;95073.88;5028515;28;20039;-62
2021/11/05 02:13:30;;;;;;;6.95;4.75;;;;;;;23.37;45.56;95058.56;5046177;28;20047;-63
2021/11/05 02:15:56;;;;;;;6.82;5.10;;;;;;;23.37;45.39;95074.91;5044774;28;20417;-62
2021/11/05 02:18:22;;;;;;;6.25;4.65;;;;;;;23.37;45.07;95055.09;5028084;28;20087;-63
2021/11/05 02:20:47;;;;;;;6.63;4.80;;;;;;;23.33;45.52;95044.47;5028280;28;20454;-63
2021/11/05 02:23:13;;;;;;;7.43;5.25;;;;;;;23.37;44.90;95056.56;5028410;28;20036;-63
2021/11/05 02:25:38;;;;;;;6.82;4.75;;;;;;;23.38;45.32;95051.88;5045644;28;20032;-62
2021/11/05 02:28:05;;;;;;;6.30;4.88;;;;;;;23.35;45.49;95047.44;5028302;28;20029;-63
2021/11/05 02:30:30;;;;;;;7.18;5.03;;;;;;;23.34;45.17;95051.41;5045708;28;20517;-63
2021/11/05 02:32:56;;;;;;;7.53;5.20;;;;;;;23.33;45.36;95044.47;5045644;28;20025;-62
2021/11/05 02:35:21;;;;;;;7.18;5.10;;;;;;;23.33;45.25;95055.34;5045332;28;20029;-62
2021/11/05 02:37:47;;;;;;;6.47;4.90;;;;;;;23.33;45.36;95044.47;5046319;28;20055;-62
2021/11/05 02:40:13;;;;;;;6.07;4.68;;;;;;;23.33;45.19;95055.34;5045743;28;20029;-63
2021/11/05 02:42:38;;;;;;;8.32;5.40;;;;;;;23.33;45.55;95049.91;5045638;28;20228;-63
2021/11/05 02:45:05;;;;;;;7.07;4.75;;;;;;;23.31;45.39;95036.06;5045832;28;20025;-63
2021/11/05 02:47:30;;;;;;;6.75;5.10;;;;;;;23.31;45.14;95052.41;5028279;28;20037;-63
2021/11/05 02:49:59;;;;;;;7.03;4.70;;;;;;;23.29;45.17;95059.59;5044278;28;20028;-63
2021/11/05 02:52:25;;;;;;;5.97;4.50;;;;;;;23.29;45.42;95044.00;5045544;28;20023;-63
2021/11/05 02:54:50;;;;;;;6.97;4.88;;;;;;;23.27;45.54;95057.38;5045454;28;20025;-63
2021/11/05 02:57:16;;;;;;;6.90;4.80;;;;;;;23.29;45.58;95054.91;5045439;28;20498;-63
2021/11/05 02:59:42;;;;;;;6.22;4.78;;;;;;;23.28;45.56;95067.03;5026785;28;20025;-64
2021/11/05 03:02:07;;;;;;;6.80;5.00;;;;;;;23.26;45.33;95061.38;5045124;28;20024;-63
2021/11/05 03:04:35;;;;;;;5.72;4.80;;;;;;;23.23;45.36;95062.38;5045071;28;20103;-63
2021/11/05 03:07:05;;;;;;;7.60;5.20;;;;;;;23.21;45.65;95053.97;5026714;28;20443;-63
2021/11/05 03:09:36;;;;;;;7.03;4.65;;;;;;;23.25;45.29;95054.44;5027393;28;20043;-63
2021/11/05 03:12:02;;;;;;;6.93;4.70;;;;;;;23.25;45.28;95062.63;5044324;28;20032;-63
2021/11/05 03:14:27;;;;;;;6.57;4.88;;;;;;;23.25;45.40;95065.34;5045179;28;20056;-63
2021/11/05 03:16:53;;;;;;;6.53;4.75;;;;;;;23.22;45.35;95041.81;5045019;28;20032;-63
2021/11/05 03:19:19;;;;;;;7.28;5.25;;;;;;;23.25;45.39;95072.78;5044990;28;20025;-63
2021/11/05 03:21:44;;;;;;;6.57;4.95;;;;;;;23.23;45.35;95056.94;5027438;28;20028;-63
2021/11/05 03:24:09;;;;;;;6.28;4.80;;;;;;;23.22;45.52;95047.28;5044919;28;20028;-63
2021/11/05 03:26:35;;;;;;;6.78;5.05;;;;;;;23.21;45.72;95053.97;5026949;28;20032;-63
2021/11/05 03:29:00;;;;;;;7.78;5.38;;;;;;;23.21;45.48;95048.50;5044832;28;20033;-63
2021/11/05 03:31:26;;;;;;;6.35;4.47;;;;;;;23.21;45.38;95053.97;5044682;28;20086;-63
2021/11/05 03:33:52;;;;;;;6.97;5.00;;;;;;;23.20;45.81;95040.84;5044516;28;20040;-63
2021/11/05 03:36:17;;;;;;;6.32;4.93;;;;;;;23.20;45.65;95036.16;5044607;28;20029;-63
2021/11/05 03:38:43;;;;;;;6.70;4.63;;;;;;;23.15;45.60;95045.13;5044654;28;20036;-63
2021/11/05 03:41:08;;;;;;;5.50;4.35;;;;;;;23.20;45.79;95047.06;5027023;28;20021;-63
2021/11/05 03:43:34;;;;;;;5.57;4.53;;;;;;;23.20;45.26;95052.50;5044478;28;20029;-63
2021/11/05 03:46:01;;;;;;;6.70;4.72;;;;;;;23.17;45.71;95053.50;5044739;28;20547;-63
2021/11/05 03:48:26;;;;;;;7.53;5.00;;;;;;;23.18;45.69;95071.31;5044426;28;20036;-63
2021/11/05 03:50:52;;;;;;;7.72;5.07;;;;;;;23.16;45.39;95057.47;5044583;28;20036;-63
2021/11/05 03:53:17;;;;;;;6.22;4.70;;;;;;;23.19;45.53;95078.25;5026515;28;20036;-63
2021/11/05 03:55:43;;;;;;;7.00;5.05;;;;;;;23.15;45.78;95061.47;5044672;28;20043;-63
2021/11/05 03:58:08;;;;;;;6.35;4.70;;;;;;;23.16;45.62;95062.91;5044445;28;20151;-63
2021/11/05 04:00:34;;;;;;;6.72;4.95;;;;;;;23.17;45.71;95066.38;5044666;28;20033;-63
2021/11/05 04:02:59;;;;;;;6.57;4.82;;;;;;;23.18;45.53;95060.44;5044040;28;20122;-63
2021/11/05 04:05:24;;;;;;;6.10;4.50;;;;;;;23.18;45.57;95071.31;5044598;28;20047;-63
2021/11/05 04:07:51;;;;;;;6.47;4.72;;;;;;;23.17;45.55;95053.50;5044312;28;20032;-63
2021/11/05 04:10:17;;;;;;;6.03;4.70;;;;;;;23.17;45.74;95064.41;5010618;28;20310;-63
2021/11/05 04:12:42;;;;;;;6.03;4.45;;;;;;;23.13;45.56;95053.03;5046846;28;20032;-63
2021/11/05 04:15:08;;;;;;;7.45;5.00;;;;;;;23.12;45.77;95051.59;5048664;28;20021;-63
2021/11/05 04:17:34;;;;;;;6.93;4.70;;;;;;;23.14;45.48;95046.34;5030493;28;20115;-63
2021/11/05 04:20:00;;;;;;;9.52;4.40;;;;;;;23.13;45.66;95044.88;5030267;28;20116;-63
2021/11/05 04:22:25;;;;;;;5.95;4.07;;;;;;;23.13;45.34;95046.84;5030478;28;20048;-63
2021/11/05 04:24:51;;;;;;;6.18;4.40;;;;;;;23.11;45.42;95043.91;5030289;28;20029;-63
2021/11/05 04:27:16;;;;;;;6.43;4.60;;;;;;;23.11;45.36;95039.19;5048258;28;20034;-63
2021/11/05 04:29:41;;;;;;;5.80;4.60;;;;;;;23.10;45.47;95048.59;5048357;28;20059;-63
2021/11/05 04:32:07;;;;;;;6.47;4.43;;;;;;;23.10;45.83;95040.44;5047957;28;20024;-63
2021/11/05 04:34:33;;;;;;;5.68;4.15;;;;;;;23.11;45.97;95052.81;5047571;28;20031;-62
2021/11/05 04:36:58;;;;;;;7.72;4.45;;;;;;;23.12;45.40;95062.47;5013604;28;20356;-62
2021/11/05 04:39:25;;;;;;;6.07;4.50;;;;;;;23.09;45.56;95036.25;5029677;28;20025;-62
2021/11/05 04:41:51;;;;;;;5.70;4.03;;;;;;;23.10;45.82;95062.22;5048077;28;20025;-62
2021/11/05 04:44:16;;;;;;;7.22;4.65;;;;;;;23.09;45.77;95035.50;5047970;28;20357;-62
2021/11/05 04:46:42;;;;;;;8.60;5.28;;;;;;;23.05;44.10;95068.47;5042611;28;20660;-62
2021/11/05 04:49:07;;;;;;;6.10;4.10;;;;;;;23.02;45.48;95066.75;5046895;28;20081;-63
2021/11/05 04:51:33;;;;;;;6.60;4.60;;;;;;;23.08;45.49;95067.44;5047349;28;20028;-63
2021/11/05 04:53:58;;;;;;;6.65;4.82;;;;;;;23.10;45.69;95066.94;5047250;28;20835;-64
2021/11/05 04:56:24;;;;;;;5.93;4.35;;;;;;;23.14;45.91;95070.88;5046409;28;20055;-65
2021/11/05 04:58:49;;;;;;;5.70;4.47;;;;;;;23.16;46.00;95062.91;4992994;28;20109;-64
2021/11/05 05:01:15;;;;;;;7.05;4.00;;;;;;;23.26;45.56;95083.16;5029735;28;20063;-65
2021/11/05 05:03:40;;;;;;;6.20;4.30;;;;;;;23.36;45.71;95094.50;5045127;28;20055;-64
2021/11/05 05:06:06;;;;;;;6.07;4.82;;;;;;;23.47;45.74;95097.88;5046853;28;20025;-65
2021/11/05 05:08:31;;;;;;;5.45;4.38;;;;;;;23.56;45.04;95078.47;5047223;28;20667;-64
2021/11/05 05:10:56;;;;;;;5.35;4.10;;;;;;;23.60;45.00;95081.66;5029229;28;20025;-66
2021/11/05 05:13:22;;;;;;;6.47;3.92;;;;;;;23.81;44.58;95104.53;5029374;28;20017;-65
2021/11/05 05:15:49;;;;;;;5.35;3.72;;;;;;;23.89;44.42;95090.56;5046725;28;20029;-66
2021/11/05 05:18:15;;;;;;;6.28;4.40;;;;;;;24.01;44.06;95119.22;5028264;28;20043;-66
2021/11/05 05:20:42;;;;;;;5.00;4.00;;;;;;;24.14;43.70;95105.72;5046033;28;20024;-66
2021/11/05 05:23:08;;;;;;;5.82;4.20;;;;;;;24.29;43.80;95114.25;5044742;28;20024;-66
2021/11/05 05:25:33;;;;;;;4.90;3.65;;;;;;;24.43;43.63;95121.31;5045751;28;20514;-66
2021/11/05 05:27:59;;;;;;;5.18;3.70;;;;;;;24.59;42.81;95125.84;5045637;28;20110;-67
2021/11/05 05:30:25;;;;;;;5.30;4.00;;;;;;;24.67;42.67;95134.94;5046393;28;20021;-67
2021/11/05 05:32:50;;;;;;;4.95;3.80;;;;;;;24.81;42.40;95117.38;5027488;28;20027;-67
2021/11/05 05:35:16;;;;;;;4.85;3.45;;;;;;;24.86;42.32;95141.91;5045046;28;20719;-67
2021/11/05 05:37:41;;;;;;;5.15;4.35;;;;;;;25.01;42.20;95126.56;5045884;28;20020;-62
2021/11/05 05:40:07;;;;;;;4.95;3.80;;;;;;;25.06;41.74;95150.34;5046615;28;20047;-62
2021/11/05 05:42:33;;;;;;;5.03;3.88;;;;;;;25.13;41.44;95129.91;5046750;28;20021;-63
2021/11/05 05:44:58;;;;;;;5.57;3.75;;;;;;;25.31;41.55;95116.19;5011892;28;20159;-64
2021/11/05 05:47:24;;;;;;;4.93;3.97;;;;;;;25.35;41.37;95122.09;5046237;28;20083;-64
2021/11/05 05:49:51;;;;;;;5.40;3.58;;;;;;;25.47;41.13;95085.13;5028599;28;20553;-63
2021/11/05 05:52:16;;;;;;;5.78;4.10;;;;;;;25.52;40.73;95103.47;5046486;28;20450;-63
2021/11/05 05:54:42;;;;;;;4.63;3.63;;;;;;;25.66;40.82;95124.88;5045245;28;20029;-63
2021/11/05 05:57:07;;;;;;;5.30;3.85;;;;;;;25.72;40.43;95105.66;5045178;28;20533;-66
2021/11/05 05:59:33;;;;;;;5.00;3.70;;;;;;;25.76;40.52;95122.50;5045631;28;20036;-66
2021/11/05 06:01:58;;;;;;;5.10;3.78;;;;;;;25.81;40.42;95112.19;5045597;28;20482;-67
2021/11/05 06:04:26;;;;;;;5.15;3.80;;;;;;;25.93;40.10;95118.97;5045280;28;20048;-66
2021/11/05 06:06:51;;;;;;;5.82;3.90;;;;;;;25.97;40.22;95138.53;5046010;28;20024;-67
2021/11/05 06:09:17;;;;;;;5.55;4.15;;;;;;;26.03;40.14;95106.34;5028024;28;20583;-67
2021/11/05 06:11:42;;;;;;;5.25;3.90;;;;;;;26.12;39.84;95143.53;5045986;28;20025;-69
2021/11/05 06:14:08;;;;;;;5.85;4.53;;;;;;;26.14;39.99;95130.03;5046120;28;20023;-68
2021/11/05 06:16:33;;;;;;;4.95;3.70;;;;;;;26.13;39.95;95107.41;5045856;28;20039;-68
2021/11/05 06:18:59;;;;;;;5.53;3.92;;;;;;;26.22;39.94;95150.81;5026769;28;20039;-67
2021/11/05 06:21:26;;;;;;;5.75;3.75;;;;;;;26.26;40.28;95120.38;5045220;28;20021;-67
2021/11/05 06:23:51;;;;;;;5.28;3.67;;;;;;;26.23;40.64;95149.53;5027535;28;20021;-66
2021/11/05 06:26:17;;;;;;;5.28;3.78;;;;;;;26.31;41.34;95128.50;5027279;28;20017;-68
2021/11/05 06:28:42;;;;;;;5.60;3.80;;;;;;;26.30;41.38;95148.94;5027354;28;20031;-67
2021/11/05 06:31:08;;;;;;;6.35;3.97;;;;;;;26.40;42.69;95119.88;5045251;28;20044;-68
2021/11/05 06:33:33;;;;;;;4.43;3.33;;;;;;;26.45;42.89;95143.69;5010556;28;20025;-66
2021/11/05 06:35:59;;;;;;;6.63;3.80;;;;;;;26.49;41.87;95138.63;5044373;28;20426;-67
2021/11/05 06:38:24;;;;;;;5.53;3.72;;;;;;;26.47;42.78;95141.16;5045187;28;20545;-67
2021/11/05 06:40:51;;;;;;;5.10;3.58;;;;;;;26.53;41.99;95145.28;5026908;28;20051;-66
2021/11/05 06:43:18;;;;;;;5.05;3.47;;;;;;;26.46;43.36;95134.94;5045086;28;20690;-67
2021/11/05 06:45:44;;;;;;;5.88;4.18;;;;;;;26.53;42.69;95117.13;5027662;28;20643;-67
2021/11/05 06:48:10;;;;;;;5.55;3.75;;;;;;;26.50;42.17;95134.63;5010451;28;20040;-66
2021/11/05 06:50:37;;;;;;;4.03;3.17;;;;;;;26.49;41.57;95141.38;5026786;28;20035;-67
2021/11/05 06:53:03;;;;;;;6.00;3.80;;;;;;;26.40;41.55;95130.84;5043500;28;20021;-65
2021/11/05 06:55:28;;;;;;;4.90;3.47;;;;;;;26.49;41.25;95141.38;5044456;28;20036;-66
2021/11/05 06:57:54;;;;;;;5.05;3.33;;;;;;;26.48;41.28;95137.16;5044349;28;20469;-66
2021/11/05 07:00:19;;;;;;;5.35;3.78;;;;;;;26.59;40.93;95128.72;5043479;28;20020;-65
2021/11/05 07:02:45;;;;;;;4.05;3.20;;;;;;;26.53;41.09;95139.03;5025189;28;20175;-66
2021/11/05 07:05:12;;;;;;;4.45;3.30;;;;;;;26.53;41.06;95144.53;5042788;28;20075;-66
2021/11/05 07:07:37;;;;;;;4.75;3.47;;;;;;;26.57;40.95;95144.94;5009623;28;20033;-66
2021/11/05 07:10:03;;;;;;;4.00;3.13;;;;;;;26.59;40.67;95136.94;5025713;28;20017;-66
2021/11/05 07:12:51;;;;;;;4.43;3.28;;;;;;;26.63;40.72;95138.09;5043557;28;20024;-66
2021/11/05 07:15:17;;;;;;;5.22;3.70;;;;;;;26.65;40.37;95146.53;5027483;28;20040;-66
2021/11/05 07:17:42;;;;;;;4.47;3.35;;;;;;;26.70;40.83;95137.47;5043827;28;20040;-64
2021/11/05 07:20:08;;;;;;;5.45;3.50;;;;;;;26.77;40.47;95158.75;5044421;28;20050;-63
2021/11/05 07:22:36;;;;;;;4.65;3.40;;;;;;;26.88;40.08;95153.06;5044233;28;20028;-65
2021/11/05 07:25:05;;;;;;;4.30;3.55;;;;;;;26.86;40.10;95145.34;5026867;28;20053;-63
2021/11/05 07:27:31;;;;;;;4.73;3.57;;;;;;;26.88;40.10;95145.56;5044099;28;20021;-63
2021/11/05 07:29:57;;;;;;;5.72;3.70;;;;;;;26.90;40.11;95151.25;5023920;28;20083;-66
2021/11/05 07:32:22;;;;;;;4.85;3.35;;;;;;;26.87;40.00;95151.56;5023830;28;20106;-68
2021/11/05 07:34:53;;;;;;;6.40;3.58;;;;;;;26.98;40.00;95143.91;5042587;28;20047;-74
2021/11/05 07:37:19;;;;;;;5.50;3.55;;;;;;;26.98;40.26;95145.88;5026702;28;20029;-72
2021/11/05 07:39:44;;;;;;;5.30;3.25;;;;;;;26.99;39.90;95137.13;5026103;28;20032;-72
2021/11/05 07:42:10;;;;;;;5.13;3.72;;;;;;;27.04;39.86;95144.50;5043775;28;20028;-72
2021/11/05 07:44:37;;;;;;;5.05;3.60;;;;;;;27.08;39.55;95144.91;5042867;28;20037;-72
2021/11/05 07:47:04;;;;;;;5.40;3.60;;;;;;;27.08;39.34;95133.94;5042390;28;20029;-72
2021/11/05 07:49:29;;;;;;;4.53;3.22;;;;;;;27.15;39.35;95133.31;5043794;28;20032;-73
2021/11/05 07:51:55;;;;;;;5.30;3.63;;;;;;;27.11;39.57;95132.88;5042879;28;20158;-71
2021/11/05 07:54:21;;;;;;;6.15;3.67;;;;;;;27.18;39.59;95148.69;5008347;28;20025;-71
2021/11/05 07:56:48;;;;;;;4.63;3.30;;;;;;;27.16;39.39;95134.78;5043339;28;20074;-70
2021/11/05 07:59:13;;;;;;;4.95;3.33;;;;;;;27.18;39.47;95135.00;5043188;28;20408;-72
2021/11/05 08:01:39;;;;;;;4.25;3.40;;;;;;;27.24;39.23;95130.84;5042264;28;20120;-73
2021/11/05 08:04:04;;;;;;;4.78;3.35;;;;;;;27.20;39.04;95126.97;5042229;28;20454;-73
2021/11/05 08:06:29;;;;;;;4.50;3.33;;;;;;;27.29;39.26;95132.00;5024941;28;20025;-73
2021/11/05 08:08:55;;;;;;;4.68;3.20;;;;;;;27.26;39.08;95133.06;5043396;28;20024;-77
2021/11/05 08:11:22;;;;;;;5.35;3.38;;;;;;;27.27;38.93;95134.53;5043587;28;20112;-76
2021/11/05 08:13:47;;;;;;;5.20;3.40;;;;;;;27.33;38.86;95127.66;5025619;28;20039;-75
2021/11/05 08:16:13;;;;;;;4.93;3.47;;;;;;;27.35;38.87;95124.38;5042137;28;20029;-74
2021/11/05 08:18:38;;;;;;;5.20;3.63;;;;;;;27.39;39.22;95119.31;5024840;28;20033;-74
2021/11/05 08:21:04;;;;;;;5.57;3.50;;;;;;;27.41;38.66;95127.75;5025292;28;20090;-73
2021/11/05 08:23:29;;;;;;;5.68;3.53;;;;;;;27.39;39.05;95130.28;5042394;28;20032;-72
2021/11/05 08:25:55;;;;;;;4.93;3.40;;;;;;;27.37;39.32;95117.09;5043188;28;21350;-73
2021/11/05 08:28:21;;;;;;;4.93;3.30;;;;;;;27.49;38.73;95134.06;5024647;28;20033;-73
2021/11/05 08:30:47;;;;;;;5.45;3.22;;;;;;;27.53;38.85;95129.72;5042904;28;20063;-73
2021/11/05 08:33:12;;;;;;;4.65;3.35;;;;;;;27.55;38.72;95135.41;5040439;28;20494;-73
2021/11/05 08:35:40;;;;;;;5.15;3.60;;;;;;;27.58;38.70;95108.91;5024780;28;20064;-72
2021/11/05 08:38:15;;;;;;;4.70;3.17;;;;;;;27.63;38.58;95124.53;5010174;28;20107;-74
2021/11/05 08:40:50;;;;;;;4.68;3.40;;;;;;;27.67;38.23;95127.66;5041741;28;20036;-65
2021/11/05 08:43:21;;;;;;;5.00;3.47;;;;;;;27.66;38.36;95120.72;5025138;28;20052;-65
2021/11/05 08:45:46;;;;;;;4.72;3.40;;;;;;;27.70;38.04;95132.81;5025247;28;20020;-65
2021/11/05 08:48:12;;;;;;;5.03;3.35;;;;;;;27.69;38.22;95141.59;5041359;28;20025;-66
2021/11/05 08:50:38;;;;;;;4.93;3.70;;;;;;;27.72;38.50;95129.53;5042419;28;20067;-66
2021/11/05 08:53:04;;;;;;;5.55;3.30;;;;;;;27.69;38.16;95136.09;5042472;28;20024;-66
2021/11/05 08:55:29;;;;;;;4.35;3.25;;;;;;;27.67;38.25;95136.63;5043266;28;20505;-65
2021/11/05 08:57:55;;;;;;;4.30;3.10;;;;;;;27.81;37.80;95132.56;5044794;28;20064;-68
2021/11/05 09:00:23;;;;;;;4.22;3.20;;;;;;;27.84;38.14;95126.72;5027654;28;20021;-68
2021/11/05 09:02:48;;;;;;;4.55;3.30;;;;;;;27.82;38.04;95123.78;5045035;28;20175;-66
2021/11/05 09:05:14;;;;;;;4.75;3.60;;;;;;;27.87;38.22;95124.91;5028018;28;20139;-68
2021/11/05 09:07:39;;;;;;;23.95;8.38;;;;;;;27.95;36.44;95136.69;5046681;28;20029;-66
2021/11/05 09:10:06;;;;;;;15.57;7.88;;;;;;;27.85;35.81;95125.47;5046907;28;20256;-65
2021/11/05 09:12:31;;;;;;;13.02;7.72;;;;;;;27.88;35.90;95118.91;5028898;28;20048;-67
2021/11/05 09:14:57;;;;;;;12.48;7.93;;;;;;;27.84;36.47;95126.72;5046031;28;20053;-67
2021/11/05 09:17:23;;;;;;;15.57;7.47;;;;;;;27.79;36.20;95113.88;5045925;28;20479;-68
2021/11/05 09:19:48;;;;;;;19.88;9.10;;;;;;;27.80;35.67;95131.81;5011822;28;20043;-67
2021/11/05 09:22:14;;;;;;;14.73;8.07;;;;;;;27.78;36.21;95128.88;5042958;28;20297;-67
2021/11/05 09:24:39;;;;;;;12.90;7.97;;;;;;;27.71;36.35;95111.59;5045675;28;20962;-67
2021/11/05 09:27:05;;;;;;;15.82;8.20;;;;;;;27.69;36.38;95116.91;5044725;28;20729;-66
2021/11/05 09:29:30;;;;;;;14.88;8.05;;;;;;;27.64;36.42;95129.47;5046084;28;20050;-67
2021/11/05 09:31:56;;;;;;;14.38;8.07;;;;;;;27.50;36.84;95113.59;5044505;28;20090;-67
2021/11/05 09:34:21;;;;;;;17.65;8.82;;;;;;;27.54;36.56;95106.50;5026760;28;20032;-68
2021/11/05 09:36:47;;;;;;;16.70;8.18;;;;;;;27.57;36.43;95112.94;5009583;28;20029;-68
2021/11/05 09:39:12;;;;;;;14.43;8.38;;;;;;;27.48;36.30;95110.63;5043473;28;20021;-67
2021/11/05 09:41:38;;;;;;;18.65;9.00;;;;;;;27.39;36.84;95102.84;5027094;28;20449;-66
2021/11/05 09:44:03;;;;;;;19.50;9.68;;;;;;;27.39;37.18;95091.88;5053894;28;20039;-68
2021/11/05 09:46:29;;;;;;;15.90;8.55;;;;;;;27.41;36.71;95106.53;5046166;28;20483;-68
2021/11/05 09:48:55;;;;;;;20.40;9.65;;;;;;;27.40;36.97;95105.06;5044693;28;20079;-68
2021/11/05 09:51:20;;;;;;;16.67;9.32;;;;;;;27.28;37.43;95092.16;5052228;28;20009;-68
2021/11/05 09:53:46;;;;;;;17.20;9.40;;;;;;;27.31;37.09;95096.56;5028196;28;20021;-67
2021/11/05 09:56:17;;;;;;;17.70;9.15;;;;;;;27.15;37.48;95100.41;5045546;28;20505;-67
2021/11/05 09:58:43;;;;;;;16.65;8.98;;;;;;;27.25;37.34;95087.72;5028751;28;20025;-66
2021/11/05 10:01:08;;;;;;;16.40;8.93;;;;;;;27.30;37.67;95095.09;5045332;28;20033;-66
2021/11/05 10:03:34;;;;;;;13.25;8.05;;;;;;;27.36;37.01;95098.44;5020293;28;20131;-68
2021/11/05 10:06:00;;;;;;;16.98;8.70;;;;;;;27.28;37.55;95089.41;5006421;28;20112;-67
2021/11/05 10:08:31;;;;;;;20.25;9.00;;;;;;;27.32;37.74;95087.03;5005967;28;20018;-66
2021/11/05 10:10:57;;;;;;;14.88;8.65;;;;;;;27.39;37.85;95069.94;5005925;28;20076;-66
2021/11/05 10:13:24;;;;;;;17.20;8.70;;;;;;;27.44;37.42;95075.31;5020386;28;20025;-67
2021/11/05 10:15:51;;;;;;;16.00;8.23;;;;;;;27.48;37.15;95077.72;5006381;28;20061;-68
2021/11/05 10:18:29;;;;;;;13.20;8.10;;;;;;;27.48;37.52;95072.94;5006202;28;20125;-68
2021/11/05 10:21:14;;;;;;;17.95;7.93;;;;;;;27.44;37.78;95058.84;5006661;28;20042;-67
2021/11/05 10:23:41;;;;;;;12.95;7.28;;;;;;;27.53;37.61;95068.63;5005906;28;20042;-67
2021/11/05 10:26:07;;;;;;;12.57;6.68;;;;;;;27.41;38.39;95061.91;5005448;28;20705;-71
2021/11/05 10:28:36;;;;;;;12.63;6.10;;;;;;;27.60;37.83;95063.22;5005991;28;20037;-76
2021/11/05 10:31:03;;;;;;;13.50;6.33;;;;;;;27.52;38.20;95053.44;5005847;28;20134;-67
2021/11/05 10:33:40;;;;;;;16.63;6.15;;;;;;;27.59;37.90;95055.50;5019390;28;20034;-66
2021/11/05 10:36:10;;;;;;;11.60;5.70;;;;;;;27.61;38.14;95047.47;5005357;28;20034;-64
2021/11/05 10:38:47;;;;;;;11.65;5.50;;;;;;;27.69;38.18;95048.28;5004362;28;20072;-64
2021/11/05 10:41:20;;;;;;;11.63;6.03;;;;;;;27.83;37.93;95042.91;5003677;28;20112;-64
2021/11/05 10:43:48;;;;;;;13.68;6.25;;;;;;;27.80;37.93;95038.50;5018436;28;20026;-65
2021/11/05 10:46:24;;;;;;;9.73;5.68;;;;;;;27.75;38.09;95039.34;5004886;28;20081;-65
2021/11/05 10:48:50;;;;;;;12.18;5.88;;;;;;;27.78;38.34;95030.06;5004575;28;20018;-65
2021/11/05 10:51:15;;;;;;;9.57;6.05;;;;;;;27.84;38.14;95033.38;5005759;28;20030;-65
2021/11/05 10:53:42;;;;;;;8.90;5.45;;;;;;;27.85;37.86;95034.16;5005377;28;20033;-64
2021/11/05 10:56:08;;;;;;;8.30;5.53;;;;;;;27.94;37.65;95037.13;5005673;28;20030;-63
2021/11/05 10:58:35;;;;;;;10.55;6.05;;;;;;;28.00;37.50;95028.75;5005020;28;20041;-65
2021/11/05 11:01:00;;;;;;;12.63;5.28;;;;;;;27.92;38.02;95017.72;5005024;28;20107;-66
2021/11/05 11:03:31;;;;;;;12.15;5.85;;;;;;;27.97;37.91;95014.09;5018140;28;20091;-66
2021/11/05 11:06:07;;;;;;;9.52;4.90;;;;;;;27.99;37.31;95011.53;5044500;28;20017;-67
2021/11/05 11:08:35;;;;;;;11.35;5.57;;;;;;;28.04;37.77;95029.13;5045181;28;20082;-64
2021/11/05 11:11:16;;;;;;;9.07;5.30;;;;;;;28.02;37.42;95021.44;5026514;28;20028;-65
2021/11/05 11:13:42;;;;;;;8.70;5.53;;;;;;;27.95;38.09;95035.88;5027015;28;20037;-65
2021/11/05 11:16:09;;;;;;;10.43;5.65;;;;;;;28.05;37.39;95009.38;5045126;28;20561;-64
2021/11/05 11:18:48;;;;;;;9.00;5.28;;;;;;;28.10;37.26;95021.50;5044288;28;20013;-64
2021/11/05 11:21:13;;;;;;;12.10;5.65;;;;;;;28.04;37.91;95013.41;5044226;28;20033;-65
2021/11/05 11:23:39;;;;;;;8.40;5.32;;;;;;;28.09;37.47;95025.56;5044769;28;20040;-64
2021/11/05 11:26:04;;;;;;;10.15;5.63;;;;;;;28.08;37.65;95011.03;5026705;28;20044;-64
2021/11/05 11:28:30;;;;;;;10.43;6.00;;;;;;;28.04;37.95;95007.91;5027038;28;20518;-64
2021/11/05 11:30:55;;;;;;;14.52;6.28;;;;;;;28.13;37.31;95018.44;5027074;28;20491;-64